sensor_id;sensor_type;location;lat;lon;timestamp;pressure;altitude;pressure_sealevel;temperature;humidity
3598;BME280;1813;52.016;8.714;2023-03-16T00:01:29;-16261.94;;;-139.71;62.74
3598;BME280;1813;52.016;8.714;2023-03-16T00:04:04;-16261.94;;;-139.71;62.62
3598;BME280;1813;52.016;8.714;2023-03-16T00:06:39;-16261.94;;;-139.71;62.72
3598;BME280;1813;52.016;8.714;2023-03-16T00:09:13;-16261.94;;;-139.71;62.86
3598;BME280;1813;52.016;8.714;2023-03-16T00:11:49;-16261.94;;;-139.71;62.88
3598;BME280;1813;52.016;8.714;2023-03-16T00:14:23;-16261.94;;;-139.71;63.10
3598;BME280;1813;52.016;8.714;2023-03-16T00:16:57;-16261.94;;;-139.71;63.28
3598;BME280;1813;52.016;8.714;2023-03-16T00:19:31;-16261.94;;;-139.71;63.35
3598;BME280;1813;52.016;8.714;2023-03-16T00:22:09;-16261.94;;;-139.71;63.50
3598;BME280;1813;52.016;8.714;2023-03-16T00:24:45;-16261.94;;;-139.71;63.40
3598;BME280;1813;52.016;8.714;2023-03-16T00:27:31;-16261.94;;;-139.71;63.85
3598;BME280;1813;52.016;8.714;2023-03-16T00:30:07;-16261.94;;;-139.71;64.12
3598;BME280;1813;52.016;8.714;2023-03-16T00:32:42;-16261.94;;;-139.71;64.02
3598;BME280;1813;52.016;8.714;2023-03-16T00:35:16;-16261.94;;;-139.71;63.72
3598;BME280;1813;52.016;8.714;2023-03-16T00:37:51;-16261.94;;;-139.71;63.71
3598;BME280;1813;52.016;8.714;2023-03-16T00:40:36;-16261.94;;;-139.71;63.98
3598;BME280;1813;52.016;8.714;2023-03-16T00:43:12;-16261.94;;;-139.71;64.31
3598;BME280;1813;52.016;8.714;2023-03-16T00:45:50;-16261.94;;;-139.71;64.31
3598;BME280;1813;52.016;8.714;2023-03-16T00:48:25;-16261.94;;;-139.71;64.25
3598;BME280;1813;52.016;8.714;2023-03-16T00:51:02;-16261.94;;;-139.71;64.16
3598;BME280;1813;52.016;8.714;2023-03-16T00:53:36;-16261.94;;;-139.71;63.98
3598;BME280;1813;52.016;8.714;2023-03-16T00:56:10;-16261.94;;;-139.71;64.14
3598;BME280;1813;52.016;8.714;2023-03-16T00:58:48;-16261.94;;;-139.71;64.33
3598;BME280;1813;52.016;8.714;2023-03-16T01:01:27;-16261.94;;;-139.71;64.35
3598;BME280;1813;52.016;8.714;2023-03-16T01:04:02;-16261.94;;;-139.71;64.57
3598;BME280;1813;52.016;8.714;2023-03-16T01:06:38;-16261.94;;;-139.71;64.55
3598;BME280;1813;52.016;8.714;2023-03-16T01:09:14;-16261.94;;;-139.71;64.49
3598;BME280;1813;52.016;8.714;2023-03-16T01:11:48;-16261.94;;;-139.71;64.35
3598;BME280;1813;52.016;8.714;2023-03-16T01:14:26;-16261.94;;;-139.71;64.00
3598;BME280;1813;52.016;8.714;2023-03-16T01:17:05;-16261.94;;;-139.71;63.62
3598;BME280;1813;52.016;8.714;2023-03-16T01:19:40;-16261.94;;;-139.71;63.50
3598;BME280;1813;52.016;8.714;2023-03-16T01:22:17;-16261.94;;;-139.71;63.26
3598;BME280;1813;52.016;8.714;2023-03-16T01:24:51;-16261.94;;;-139.71;63.15
3598;BME280;1813;52.016;8.714;2023-03-16T01:27:25;-16261.94;;;-139.71;62.84
3598;BME280;1813;52.016;8.714;2023-03-16T01:30:04;-16261.94;;;-139.71;62.91
3598;BME280;1813;52.016;8.714;2023-03-16T01:32:38;-16261.94;;;-139.71;62.81
3598;BME280;1813;52.016;8.714;2023-03-16T01:35:12;-16261.94;;;-139.71;62.49
3598;BME280;1813;52.016;8.714;2023-03-16T01:37:46;-16261.94;;;-139.71;62.64
3598;BME280;1813;52.016;8.714;2023-03-16T01:40:24;-16261.94;;;-139.71;62.79
3598;BME280;1813;52.016;8.714;2023-03-16T01:43:01;-16261.94;;;-139.71;62.93
3598;BME280;1813;52.016;8.714;2023-03-16T01:46:14;-16261.94;;;-139.71;63.24
3598;BME280;1813;52.016;8.714;2023-03-16T01:48:58;-16261.94;;;-139.71;62.85
3598;BME280;1813;52.016;8.714;2023-03-16T01:51:41;-16261.94;;;-139.71;62.87
3598;BME280;1813;52.016;8.714;2023-03-16T01:54:21;-16261.94;;;-139.71;62.73
3598;BME280;1813;52.016;8.714;2023-03-16T01:57:01;-16261.94;;;-139.71;62.54
3598;BME280;1813;52.016;8.714;2023-03-16T01:59:39;-16261.94;;;-139.71;62.68
3598;BME280;1813;52.016;8.714;2023-03-16T02:02:22;-16261.94;;;-139.71;62.97
3598;BME280;1813;52.016;8.714;2023-03-16T02:05:00;-16261.94;;;-139.71;63.33
3598;BME280;1813;52.016;8.714;2023-03-16T02:07:38;-16261.94;;;-139.71;63.57
3598;BME280;1813;52.016;8.714;2023-03-16T02:10:15;-16261.94;;;-139.71;63.72
3598;BME280;1813;52.016;8.714;2023-03-16T02:12:52;-16261.94;;;-139.71;63.82
3598;BME280;1813;52.016;8.714;2023-03-16T02:15:28;-16261.94;;;-139.71;63.64
3598;BME280;1813;52.016;8.714;2023-03-16T02:18:05;-16261.94;;;-139.71;63.58
3598;BME280;1813;52.016;8.714;2023-03-16T02:20:46;-16261.94;;;-139.71;63.33
3598;BME280;1813;52.016;8.714;2023-03-16T02:23:25;-16261.94;;;-139.71;63.24
3598;BME280;1813;52.016;8.714;2023-03-16T02:26:08;-16261.94;;;-139.71;63.14
3598;BME280;1813;52.016;8.714;2023-03-16T02:28:48;-16261.94;;;-139.71;62.89
3598;BME280;1813;52.016;8.714;2023-03-16T02:31:29;-16261.94;;;-139.71;62.79
3598;BME280;1813;52.016;8.714;2023-03-16T02:34:04;-16261.94;;;-139.71;62.93
3598;BME280;1813;52.016;8.714;2023-03-16T02:36:39;-16261.94;;;-139.71;63.00
3598;BME280;1813;52.016;8.714;2023-03-16T02:39:14;-16261.94;;;-139.71;63.15
3598;BME280;1813;52.016;8.714;2023-03-16T02:41:50;-16261.94;;;-139.71;63.05
3598;BME280;1813;52.016;8.714;2023-03-16T02:44:29;-16261.94;;;-139.71;62.97
3598;BME280;1813;52.016;8.714;2023-03-16T02:47:14;-16261.94;;;-139.71;62.74
3598;BME280;1813;52.016;8.714;2023-03-16T02:49:49;-16261.94;;;-139.71;62.47
3598;BME280;1813;52.016;8.714;2023-03-16T02:52:24;-16261.94;;;-139.71;62.24
3598;BME280;1813;52.016;8.714;2023-03-16T02:54:58;-16261.94;;;-139.71;62.08
3598;BME280;1813;52.016;8.714;2023-03-16T02:57:33;-16261.94;;;-139.71;62.20
3598;BME280;1813;52.016;8.714;2023-03-16T03:00:13;-16261.94;;;-139.71;62.13
3598;BME280;1813;52.016;8.714;2023-03-16T03:02:53;-16261.94;;;-139.71;62.00
3598;BME280;1813;52.016;8.714;2023-03-16T03:05:27;-16261.94;;;-139.71;61.93
3598;BME280;1813;52.016;8.714;2023-03-16T03:08:02;-16261.94;;;-139.71;61.93
3598;BME280;1813;52.016;8.714;2023-03-16T03:10:36;-16261.94;;;-139.71;61.99
3598;BME280;1813;52.016;8.714;2023-03-16T03:13:16;-16261.94;;;-139.71;61.87
3598;BME280;1813;52.016;8.714;2023-03-16T03:15:51;-16261.94;;;-139.71;61.96
3598;BME280;1813;52.016;8.714;2023-03-16T03:18:31;-16261.94;;;-139.71;62.00
3598;BME280;1813;52.016;8.714;2023-03-16T03:21:06;-16261.94;;;-139.71;61.98
3598;BME280;1813;52.016;8.714;2023-03-16T03:23:44;-16261.94;;;-139.71;61.93
3598;BME280;1813;52.016;8.714;2023-03-16T03:26:19;-16261.94;;;-139.71;62.04
3598;BME280;1813;52.016;8.714;2023-03-16T03:28:55;-16261.94;;;-139.71;62.13
3598;BME280;1813;52.016;8.714;2023-03-16T03:31:30;-16261.94;;;-139.71;62.20
3598;BME280;1813;52.016;8.714;2023-03-16T03:34:07;-16261.94;;;-139.71;62.33
3598;BME280;1813;52.016;8.714;2023-03-16T03:36:43;-16261.94;;;-139.71;62.11
3598;BME280;1813;52.016;8.714;2023-03-16T03:39:18;-16261.94;;;-139.71;62.06
3598;BME280;1813;52.016;8.714;2023-03-16T03:41:54;-16261.94;;;-139.71;61.88
3598;BME280;1813;52.016;8.714;2023-03-16T03:44:30;-16261.94;;;-139.71;61.65
3598;BME280;1813;52.016;8.714;2023-03-16T03:47:05;-16261.94;;;-139.71;61.33
3598;BME280;1813;52.016;8.714;2023-03-16T03:49:43;-16261.94;;;-139.71;61.23
3598;BME280;1813;52.016;8.714;2023-03-16T03:52:16;-16261.94;;;-139.71;61.26
3598;BME280;1813;52.016;8.714;2023-03-16T03:54:51;-16261.94;;;-139.71;61.32
3598;BME280;1813;52.016;8.714;2023-03-16T03:57:26;-16261.94;;;-139.71;61.64
3598;BME280;1813;52.016;8.714;2023-03-16T04:00:04;-16261.94;;;-139.71;61.57
3598;BME280;1813;52.016;8.714;2023-03-16T04:02:48;-16261.94;;;-139.71;61.61
3598;BME280;1813;52.016;8.714;2023-03-16T04:05:31;-16261.94;;;-139.71;61.39
3598;BME280;1813;52.016;8.714;2023-03-16T04:08:06;-16261.94;;;-139.71;61.59
3598;BME280;1813;52.016;8.714;2023-03-16T04:10:41;-16261.94;;;-139.71;62.05
3598;BME280;1813;52.016;8.714;2023-03-16T04:13:15;-16261.94;;;-139.71;62.42
3598;BME280;1813;52.016;8.714;2023-03-16T04:15:55;-16261.94;;;-139.71;62.66
3598;BME280;1813;52.016;8.714;2023-03-16T04:18:34;-16261.94;;;-139.71;62.65
3598;BME280;1813;52.016;8.714;2023-03-16T04:21:16;-16261.94;;;-139.71;62.71
3598;BME280;1813;52.016;8.714;2023-03-16T04:23:52;-16261.94;;;-139.71;62.69
3598;BME280;1813;52.016;8.714;2023-03-16T04:26:34;-16261.94;;;-139.71;62.71
3598;BME280;1813;52.016;8.714;2023-03-16T04:29:09;-16261.94;;;-139.71;62.66
3598;BME280;1813;52.016;8.714;2023-03-16T04:31:44;-16261.94;;;-139.71;62.58
3598;BME280;1813;52.016;8.714;2023-03-16T04:34:19;-16261.94;;;-139.71;62.64
3598;BME280;1813;52.016;8.714;2023-03-16T04:36:59;-16261.94;;;-139.71;62.46
3598;BME280;1813;52.016;8.714;2023-03-16T04:39:39;-16261.94;;;-139.71;62.47
3598;BME280;1813;52.016;8.714;2023-03-16T04:42:17;-16261.94;;;-139.71;62.52
3598;BME280;1813;52.016;8.714;2023-03-16T04:44:54;-16261.94;;;-139.71;62.39
3598;BME280;1813;52.016;8.714;2023-03-16T04:47:38;-16261.94;;;-139.71;62.39
3598;BME280;1813;52.016;8.714;2023-03-16T04:50:16;-16261.94;;;-139.71;62.10
3598;BME280;1813;52.016;8.714;2023-03-16T04:52:58;-16261.94;;;-139.71;61.86
3598;BME280;1813;52.016;8.714;2023-03-16T04:55:33;-16261.94;;;-139.71;62.22
3598;BME280;1813;52.016;8.714;2023-03-16T04:58:09;-16261.94;;;-139.71;62.66
3598;BME280;1813;52.016;8.714;2023-03-16T05:00:44;-16261.94;;;-139.71;63.00
3598;BME280;1813;52.016;8.714;2023-03-16T05:03:25;-16261.94;;;-139.71;63.18
3598;BME280;1813;52.016;8.714;2023-03-16T05:06:00;-16261.94;;;-139.71;63.27
3598;BME280;1813;52.016;8.714;2023-03-16T05:08:39;-16261.94;;;-139.71;63.27
3598;BME280;1813;52.016;8.714;2023-03-16T05:11:13;-16261.94;;;-139.71;63.29
3598;BME280;1813;52.016;8.714;2023-03-16T05:13:57;-16261.94;;;-139.71;63.30
3598;BME280;1813;52.016;8.714;2023-03-16T05:16:43;-16261.94;;;-139.71;63.40
3598;BME280;1813;52.016;8.714;2023-03-16T05:19:18;-16261.94;;;-139.71;63.44
3598;BME280;1813;52.016;8.714;2023-03-16T05:21:53;-16261.94;;;-139.71;63.64
3598;BME280;1813;52.016;8.714;2023-03-16T05:24:29;-16261.94;;;-139.71;63.57
3598;BME280;1813;52.016;8.714;2023-03-16T05:27:08;-16261.94;;;-139.71;63.63
3598;BME280;1813;52.016;8.714;2023-03-16T05:29:41;-16261.94;;;-139.71;63.69
3598;BME280;1813;52.016;8.714;2023-03-16T05:32:20;-16261.94;;;-139.71;63.61
3598;BME280;1813;52.016;8.714;2023-03-16T05:34:55;-16261.94;;;-139.71;63.72
3598;BME280;1813;52.016;8.714;2023-03-16T05:37:29;-16261.94;;;-139.71;63.69
3598;BME280;1813;52.016;8.714;2023-03-16T05:40:15;-16261.94;;;-139.71;63.76
3598;BME280;1813;52.016;8.714;2023-03-16T05:43:09;-16261.94;;;-139.71;63.55
3598;BME280;1813;52.016;8.714;2023-03-16T05:45:50;-16261.94;;;-139.71;63.52
3598;BME280;1813;52.016;8.714;2023-03-16T05:48:24;-16261.94;;;-139.71;63.36
3598;BME280;1813;52.016;8.714;2023-03-16T05:51:03;-16261.94;;;-139.71;63.28
3598;BME280;1813;52.016;8.714;2023-03-16T05:53:38;-16261.94;;;-139.71;63.25
3598;BME280;1813;52.016;8.714;2023-03-16T05:56:23;-16261.94;;;-139.71;63.23
3598;BME280;1813;52.016;8.714;2023-03-16T05:59:01;-16261.94;;;-139.71;63.32
3598;BME280;1813;52.016;8.714;2023-03-16T06:01:35;-16261.94;;;-139.71;63.32
3598;BME280;1813;52.016;8.714;2023-03-16T06:04:10;-16261.94;;;-139.71;63.69
3598;BME280;1813;52.016;8.714;2023-03-16T06:06:46;-16261.94;;;-139.71;63.93
3598;BME280;1813;52.016;8.714;2023-03-16T06:09:27;-16261.94;;;-139.71;64.06
3598;BME280;1813;52.016;8.714;2023-03-16T06:12:05;-16261.94;;;-139.71;64.13
3598;BME280;1813;52.016;8.714;2023-03-16T06:14:45;-16261.94;;;-139.71;64.20
3598;BME280;1813;52.016;8.714;2023-03-16T06:17:21;-16261.94;;;-139.71;64.37
3598;BME280;1813;52.016;8.714;2023-03-16T06:19:55;-16261.94;;;-139.71;64.54
3598;BME280;1813;52.016;8.714;2023-03-16T06:22:32;-16261.94;;;-139.71;64.64
3598;BME280;1813;52.016;8.714;2023-03-16T06:25:15;-16261.94;;;-139.71;64.54
3598;BME280;1813;52.016;8.714;2023-03-16T06:27:54;-16261.94;;;-139.71;64.48
3598;BME280;1813;52.016;8.714;2023-03-16T06:30:30;-16261.94;;;-139.71;64.45
3598;BME280;1813;52.016;8.714;2023-03-16T06:33:07;-16261.94;;;-139.71;64.42
3598;BME280;1813;52.016;8.714;2023-03-16T06:35:41;-16261.94;;;-139.71;64.43
3598;BME280;1813;52.016;8.714;2023-03-16T06:38:21;-16261.94;;;-139.71;64.41
3598;BME280;1813;52.016;8.714;2023-03-16T06:41:09;-16261.94;;;-139.71;64.21
3598;BME280;1813;52.016;8.714;2023-03-16T06:43:48;-16261.94;;;-139.71;63.61
3598;BME280;1813;52.016;8.714;2023-03-16T06:46:22;-16261.94;;;-139.71;63.01
3598;BME280;1813;52.016;8.714;2023-03-16T06:48:56;-16261.94;;;-139.71;62.01
3598;BME280;1813;52.016;8.714;2023-03-16T06:51:31;-16261.94;;;-139.71;60.96
3598;BME280;1813;52.016;8.714;2023-03-16T06:54:08;-16261.94;;;-139.71;59.98
3598;BME280;1813;52.016;8.714;2023-03-16T06:56:46;-16261.94;;;-139.71;59.22
3598;BME280;1813;52.016;8.714;2023-03-16T06:59:22;-16261.94;;;-139.71;58.44
3598;BME280;1813;52.016;8.714;2023-03-16T07:01:56;-16261.94;;;-139.71;58.17
3598;BME280;1813;52.016;8.714;2023-03-16T07:04:32;-16261.94;;;-139.71;57.56
3598;BME280;1813;52.016;8.714;2023-03-16T07:07:12;-16261.94;;;-139.71;57.63
3598;BME280;1813;52.016;8.714;2023-03-16T07:09:49;-16261.94;;;-139.71;57.12
3598;BME280;1813;52.016;8.714;2023-03-16T07:12:25;-16261.94;;;-139.71;56.45
3598;BME280;1813;52.016;8.714;2023-03-16T07:15:03;-16261.94;;;-139.71;55.77
3598;BME280;1813;52.016;8.714;2023-03-16T07:17:39;-16261.94;;;-139.71;55.07
3598;BME280;1813;52.016;8.714;2023-03-16T07:20:13;-16261.94;;;-139.71;54.47
3598;BME280;1813;52.016;8.714;2023-03-16T07:22:47;-16261.94;;;-139.71;53.98
3598;BME280;1813;52.016;8.714;2023-03-16T07:25:22;-16261.94;;;-139.71;54.18
3598;BME280;1813;52.016;8.714;2023-03-16T07:27:58;-16261.94;;;-139.71;54.27
3598;BME280;1813;52.016;8.714;2023-03-16T07:30:41;-16261.94;;;-139.71;53.43
3598;BME280;1813;52.016;8.714;2023-03-16T07:33:17;-16261.94;;;-139.71;53.06
3598;BME280;1813;52.016;8.714;2023-03-16T07:35:51;-16261.94;;;-139.71;52.44
3598;BME280;1813;52.016;8.714;2023-03-16T07:38:32;-16261.94;;;-139.71;52.48
3598;BME280;1813;52.016;8.714;2023-03-16T07:41:08;-16261.94;;;-139.71;51.73
3598;BME280;1813;52.016;8.714;2023-03-16T07:43:42;-16261.94;;;-139.71;51.50
3598;BME280;1813;52.016;8.714;2023-03-16T07:46:23;-16261.94;;;-139.71;50.95
3598;BME280;1813;52.016;8.714;2023-03-16T07:48:58;-16261.94;;;-139.71;50.90
3598;BME280;1813;52.016;8.714;2023-03-16T07:51:32;-16261.94;;;-139.71;50.41
3598;BME280;1813;52.016;8.714;2023-03-16T07:54:07;-16261.94;;;-139.71;50.50
3598;BME280;1813;52.016;8.714;2023-03-16T07:56:42;-16261.94;;;-139.71;50.50
3598;BME280;1813;52.016;8.714;2023-03-16T07:59:20;-16261.94;;;-139.71;49.86
3598;BME280;1813;52.016;8.714;2023-03-16T08:01:58;-16261.94;;;-139.71;49.66
3598;BME280;1813;52.016;8.714;2023-03-16T08:04:33;-16261.94;;;-139.71;49.42
3598;BME280;1813;52.016;8.714;2023-03-16T08:07:08;-16261.94;;;-139.71;49.22
3598;BME280;1813;52.016;8.714;2023-03-16T08:10:05;-16261.94;;;-139.71;49.31
3598;BME280;1813;52.016;8.714;2023-03-16T08:13:05;-16261.94;;;-139.71;48.98
3598;BME280;1813;52.016;8.714;2023-03-16T08:16:06;-16261.94;;;-139.71;49.01
3598;BME280;1813;52.016;8.714;2023-03-16T08:18:48;-16261.94;;;-139.71;48.78
3598;BME280;1813;52.016;8.714;2023-03-16T08:21:23;-16261.94;;;-139.71;48.23
3598;BME280;1813;52.016;8.714;2023-03-16T08:24:06;-16261.94;;;-139.71;48.23
3598;BME280;1813;52.016;8.714;2023-03-16T08:26:42;-16261.94;;;-139.71;47.53
3598;BME280;1813;52.016;8.714;2023-03-16T08:29:18;-16261.94;;;-139.71;47.18
3598;BME280;1813;52.016;8.714;2023-03-16T08:31:53;-16261.94;;;-139.71;47.19
3598;BME280;1813;52.016;8.714;2023-03-16T08:34:38;-16261.94;;;-139.71;47.03
3598;BME280;1813;52.016;8.714;2023-03-16T08:37:22;-16261.94;;;-139.71;46.62
3598;BME280;1813;52.016;8.714;2023-03-16T08:40:09;-16261.94;;;-139.71;46.98
3598;BME280;1813;52.016;8.714;2023-03-16T08:42:53;-16261.94;;;-139.71;46.99
3598;BME280;1813;52.016;8.714;2023-03-16T08:45:49;-16261.94;;;-139.71;47.33
3598;BME280;1813;52.016;8.714;2023-03-16T08:48:36;-16261.94;;;-139.71;46.85
3598;BME280;1813;52.016;8.714;2023-03-16T08:51:27;-16261.94;;;-139.71;46.32
3598;BME280;1813;52.016;8.714;2023-03-16T08:54:11;-16261.94;;;-139.71;46.49
3598;BME280;1813;52.016;8.714;2023-03-16T08:56:55;-16261.94;;;-139.71;46.08
3598;BME280;1813;52.016;8.714;2023-03-16T08:59:40;-16261.94;;;-139.71;46.64
3598;BME280;1813;52.016;8.714;2023-03-16T09:02:24;-16261.94;;;-139.71;46.87
3598;BME280;1813;52.016;8.714;2023-03-16T09:05:13;-16261.94;;;-139.71;46.47
3598;BME280;1813;52.016;8.714;2023-03-16T09:08:00;-16261.94;;;-139.71;45.57
3598;BME280;1813;52.016;8.714;2023-03-16T09:10:37;-16261.94;;;-139.71;44.58
3598;BME280;1813;52.016;8.714;2023-03-16T09:13:12;-16261.94;;;-139.71;44.35
3598;BME280;1813;52.016;8.714;2023-03-16T09:15:45;-16261.94;;;-139.71;43.77
3598;BME280;1813;52.016;8.714;2023-03-16T09:18:20;-16261.94;;;-139.71;43.50
3598;BME280;1813;52.016;8.714;2023-03-16T09:20:59;-16261.94;;;-139.71;43.52
3598;BME280;1813;52.016;8.714;2023-03-16T09:23:36;-16261.94;;;-139.71;43.63
3598;BME280;1813;52.016;8.714;2023-03-16T09:26:12;-16261.94;;;-139.71;42.87
3598;BME280;1813;52.016;8.714;2023-03-16T09:28:48;-16261.94;;;-139.71;42.82
3598;BME280;1813;52.016;8.714;2023-03-16T09:31:22;-16261.94;;;-139.71;42.59
3598;BME280;1813;52.016;8.714;2023-03-16T09:34:01;-16261.94;;;-139.71;42.59
3598;BME280;1813;52.016;8.714;2023-03-16T09:36:37;-16261.94;;;-139.71;42.35
3598;BME280;1813;52.016;8.714;2023-03-16T09:39:14;-16261.94;;;-139.71;42.71
3598;BME280;1813;52.016;8.714;2023-03-16T09:41:54;-16261.94;;;-139.71;42.64
3598;BME280;1813;52.016;8.714;2023-03-16T09:44:41;-16261.94;;;-139.71;41.73
3598;BME280;1813;52.016;8.714;2023-03-16T09:47:24;-16261.94;;;-139.71;41.39
3598;BME280;1813;52.016;8.714;2023-03-16T09:50:05;-16261.94;;;-139.71;41.68
3598;BME280;1813;52.016;8.714;2023-03-16T09:52:45;-16261.94;;;-139.71;41.13
3598;BME280;1813;52.016;8.714;2023-03-16T09:55:26;-16261.94;;;-139.71;41.23
3598;BME280;1813;52.016;8.714;2023-03-16T09:58:05;-16261.94;;;-139.71;41.63
3598;BME280;1813;52.016;8.714;2023-03-16T10:00:49;-16261.94;;;-139.71;41.25
3598;BME280;1813;52.016;8.714;2023-03-16T10:03:35;-16261.94;;;-139.71;41.04
3598;BME280;1813;52.016;8.714;2023-03-16T10:06:15;-16261.94;;;-139.71;41.03
3598;BME280;1813;52.016;8.714;2023-03-16T10:08:53;-16261.94;;;-139.71;40.71
3598;BME280;1813;52.016;8.714;2023-03-16T10:11:37;-16261.94;;;-139.71;40.17
3598;BME280;1813;52.016;8.714;2023-03-16T10:14:17;-16261.94;;;-139.71;40.46
3598;BME280;1813;52.016;8.714;2023-03-16T10:16:56;-16261.94;;;-139.71;40.85
3598;BME280;1813;52.016;8.714;2023-03-16T10:19:36;-16261.94;;;-139.71;40.61
3598;BME280;1813;52.016;8.714;2023-03-16T10:22:18;-16261.94;;;-139.71;41.15
3598;BME280;1813;52.016;8.714;2023-03-16T10:25:06;-16261.94;;;-139.71;40.50
3598;BME280;1813;52.016;8.714;2023-03-16T10:27:53;-16261.94;;;-139.71;40.35
3598;BME280;1813;52.016;8.714;2023-03-16T10:30:31;-16261.94;;;-139.71;39.99
3598;BME280;1813;52.016;8.714;2023-03-16T10:33:17;-16261.94;;;-139.71;39.85
3598;BME280;1813;52.016;8.714;2023-03-16T10:35:59;-16261.94;;;-139.71;39.85
3598;BME280;1813;52.016;8.714;2023-03-16T10:38:40;-16261.94;;;-139.71;40.00
3598;BME280;1813;52.016;8.714;2023-03-16T10:41:22;-16261.94;;;-139.71;40.13
3598;BME280;1813;52.016;8.714;2023-03-16T10:44:02;-16261.94;;;-139.71;40.26
3598;BME280;1813;52.016;8.714;2023-03-16T10:46:41;-16261.94;;;-139.71;40.45
3598;BME280;1813;52.016;8.714;2023-03-16T10:49:23;-16261.94;;;-139.71;40.73
3598;BME280;1813;52.016;8.714;2023-03-16T10:51:59;-16261.94;;;-139.71;40.62
3598;BME280;1813;52.016;8.714;2023-03-16T10:54:38;-16261.94;;;-139.71;41.57
3598;BME280;1813;52.016;8.714;2023-03-16T10:57:18;-16261.94;;;-139.71;40.78
3598;BME280;1813;52.016;8.714;2023-03-16T11:00:03;-16261.94;;;-139.71;40.38
3598;BME280;1813;52.016;8.714;2023-03-16T11:02:46;-16261.94;;;-139.71;40.09
3598;BME280;1813;52.016;8.714;2023-03-16T11:05:26;-16261.94;;;-139.71;40.16
3598;BME280;1813;52.016;8.714;2023-03-16T11:08:06;-16261.94;;;-139.71;40.35
3598;BME280;1813;52.016;8.714;2023-03-16T11:10:44;-16261.94;;;-139.71;40.15
3598;BME280;1813;52.016;8.714;2023-03-16T11:13:20;-16261.94;;;-139.71;40.13
3598;BME280;1813;52.016;8.714;2023-03-16T11:16:01;-16261.94;;;-139.71;40.32
3598;BME280;1813;52.016;8.714;2023-03-16T11:18:40;-16261.94;;;-139.71;40.09
3598;BME280;1813;52.016;8.714;2023-03-16T11:21:22;-16261.94;;;-139.71;39.52
3598;BME280;1813;52.016;8.714;2023-03-16T11:24:08;-16261.94;;;-139.71;39.43
3598;BME280;1813;52.016;8.714;2023-03-16T11:26:44;-16261.94;;;-139.71;39.76
3598;BME280;1813;52.016;8.714;2023-03-16T11:29:23;-16261.94;;;-139.71;39.78
3598;BME280;1813;52.016;8.714;2023-03-16T11:32:11;-16261.94;;;-139.71;40.13
3598;BME280;1813;52.016;8.714;2023-03-16T11:34:47;-16261.94;;;-139.71;40.20
3598;BME280;1813;52.016;8.714;2023-03-16T11:37:40;-16261.94;;;-139.71;39.75
3598;BME280;1813;52.016;8.714;2023-03-16T11:40:37;-16261.94;;;-139.71;39.99
3598;BME280;1813;52.016;8.714;2023-03-16T11:43:46;-16261.94;;;-139.71;39.55
3598;BME280;1813;52.016;8.714;2023-03-16T11:46:35;-16261.94;;;-139.71;39.80
3598;BME280;1813;52.016;8.714;2023-03-16T11:49:37;-16261.94;;;-139.71;40.08
3598;BME280;1813;52.016;8.714;2023-03-16T11:52:22;-16261.94;;;-139.71;39.76
3598;BME280;1813;52.016;8.714;2023-03-16T11:55:07;-16261.94;;;-139.71;39.67
3598;BME280;1813;52.016;8.714;2023-03-16T11:57:56;-16261.94;;;-139.71;39.21
3598;BME280;1813;52.016;8.714;2023-03-16T12:00:39;-16261.94;;;-139.71;38.58
3598;BME280;1813;52.016;8.714;2023-03-16T12:03:43;-16261.94;;;-139.71;38.53
3598;BME280;1813;52.016;8.714;2023-03-16T12:09:44;-16261.94;;;-139.71;39.07
3598;BME280;1813;52.016;8.714;2023-03-16T12:12:36;-16261.94;;;-139.71;38.29
3598;BME280;1813;52.016;8.714;2023-03-16T12:15:37;-16261.94;;;-139.71;38.70
3598;BME280;1813;52.016;8.714;2023-03-16T12:18:17;-16261.94;;;-139.71;39.05
3598;BME280;1813;52.016;8.714;2023-03-16T12:21:01;-16261.94;;;-139.71;38.85
3598;BME280;1813;52.016;8.714;2023-03-16T12:23:42;-16261.94;;;-139.71;39.10
3598;BME280;1813;52.016;8.714;2023-03-16T12:26:26;-16261.94;;;-139.71;38.72
3598;BME280;1813;52.016;8.714;2023-03-16T12:29:13;-16261.94;;;-139.71;39.05
3598;BME280;1813;52.016;8.714;2023-03-16T12:31:52;-16261.94;;;-139.71;38.52
3598;BME280;1813;52.016;8.714;2023-03-16T12:34:31;-16261.94;;;-139.71;38.08
3598;BME280;1813;52.016;8.714;2023-03-16T12:37:25;-16261.94;;;-139.71;38.55
3598;BME280;1813;52.016;8.714;2023-03-16T12:40:17;-16261.94;;;-139.71;38.47
3598;BME280;1813;52.016;8.714;2023-03-16T12:43:05;-16261.94;;;-139.71;38.43
3598;BME280;1813;52.016;8.714;2023-03-16T12:45:49;-16261.94;;;-139.71;38.71
3598;BME280;1813;52.016;8.714;2023-03-16T12:48:27;-16261.94;;;-139.71;38.62
3598;BME280;1813;52.016;8.714;2023-03-16T12:51:03;-16261.94;;;-139.71;38.67
3598;BME280;1813;52.016;8.714;2023-03-16T12:53:41;-16261.94;;;-139.71;39.07
3598;BME280;1813;52.016;8.714;2023-03-16T12:56:30;-16261.94;;;-139.71;39.15
3598;BME280;1813;52.016;8.714;2023-03-16T12:59:05;-16261.94;;;-139.71;38.01
3598;BME280;1813;52.016;8.714;2023-03-16T13:01:43;-16261.94;;;-139.71;37.43
3598;BME280;1813;52.016;8.714;2023-03-16T13:04:30;-16261.94;;;-139.71;37.75
3598;BME280;1813;52.016;8.714;2023-03-16T13:07:13;-16261.94;;;-139.71;37.20
3598;BME280;1813;52.016;8.714;2023-03-16T13:09:52;-16261.94;;;-139.71;37.03
3598;BME280;1813;52.016;8.714;2023-03-16T13:12:33;-16261.94;;;-139.71;36.60
3598;BME280;1813;52.016;8.714;2023-03-16T13:15:26;-16261.94;;;-139.71;36.35
3598;BME280;1813;52.016;8.714;2023-03-16T13:18:08;-16261.94;;;-139.71;36.08
3598;BME280;1813;52.016;8.714;2023-03-16T13:20:55;-16261.94;;;-139.71;35.89
3598;BME280;1813;52.016;8.714;2023-03-16T13:26:43;-16261.94;;;-139.71;35.82
3598;BME280;1813;52.016;8.714;2023-03-16T13:29:23;-16261.94;;;-139.71;35.98
3598;BME280;1813;52.016;8.714;2023-03-16T13:31:59;-16261.94;;;-139.71;36.22
3598;BME280;1813;52.016;8.714;2023-03-16T13:34:39;-16261.94;;;-139.71;37.10
3598;BME280;1813;52.016;8.714;2023-03-16T13:37:20;-16261.94;;;-139.71;37.43
3598;BME280;1813;52.016;8.714;2023-03-16T13:39:57;-16261.94;;;-139.71;36.76
3598;BME280;1813;52.016;8.714;2023-03-16T13:42:32;-16261.94;;;-139.71;36.46
3598;BME280;1813;52.016;8.714;2023-03-16T13:45:14;-16261.94;;;-139.71;36.85
3598;BME280;1813;52.016;8.714;2023-03-16T13:47:49;-16261.94;;;-139.71;37.07
3598;BME280;1813;52.016;8.714;2023-03-16T13:50:24;-16261.94;;;-139.71;36.08
3598;BME280;1813;52.016;8.714;2023-03-16T13:53:02;-16261.94;;;-139.71;36.53
3598;BME280;1813;52.016;8.714;2023-03-16T13:55:38;-16261.94;;;-139.71;36.19
3598;BME280;1813;52.016;8.714;2023-03-16T13:58:20;-16261.94;;;-139.71;36.04
3598;BME280;1813;52.016;8.714;2023-03-16T14:00:59;-16261.94;;;-139.71;36.47